Time;durP1;ratioP1;P1;durP2;ratioP2;P2;SDS_P1;SDS_P2;PMS_P1;PMS_P2;Temp;Humidity;BMP_temperature;BMP_pressure;BME280_temperature;BME280_humidity;BME280_pressure;Samples;Min_cycle;Max_cycle;Signal;HPM_P1;HPM_P2
2023/08/23 00:01:28;;;;;;;3.60;3.30;;;20.00;99.90;;;;;;5077536;28;20032;-69
2023/08/23 00:03:54;;;;;;;4.55;2.80;;;20.00;99.90;;;;;;5074486;28;20692;-69
2023/08/23 00:06:20;;;;;;;3.75;2.80;;;20.10;99.90;;;;;;5074322;28;20456;-69
2023/08/23 00:08:45;;;;;;;6.60;3.30;;;20.00;99.90;;;;;;5071726;28;20039;-69
2023/08/23 00:11:11;;;;;;;4.50;3.10;;;20.10;99.90;;;;;;5075919;28;20028;-69
2023/08/23 00:13:37;;;;;;;3.33;3.00;;;20.00;99.90;;;;;;5070784;28;20187;-69
2023/08/23 00:16:03;;;;;;;3.92;3.25;;;20.10;99.90;;;;;;5077803;28;20034;-69
2023/08/23 00:18:28;;;;;;;4.40;3.03;;;20.10;99.90;;;;;;5073227;28;20110;-69
2023/08/23 00:20:54;;;;;;;5.38;3.35;;;20.10;99.90;;;;;;5074332;28;20106;-69
2023/08/23 00:23:20;;;;;;;5.55;3.55;;;20.20;99.90;;;;;;5073658;28;20126;-69
2023/08/23 00:25:46;;;;;;;4.63;3.28;;;20.20;99.90;;;;;;5071069;28;20031;-69
2023/08/23 00:28:11;;;;;;;3.53;2.90;;;20.20;99.90;;;;;;5074831;28;20020;-69
2023/08/23 00:30:37;;;;;;;4.22;3.10;;;20.20;99.90;;;;;;5073170;28;20034;-69
2023/08/23 00:33:03;;;;;;;3.83;2.92;;;20.20;99.90;;;;;;5075016;28;20028;-69
2023/08/23 00:35:29;;;;;;;3.88;2.60;;;20.20;99.90;;;;;;5076549;28;20035;-69
2023/08/23 00:37:54;;;;;;;7.30;2.80;;;20.30;99.90;;;;;;5073326;28;20075;-69
2023/08/23 00:40:20;;;;;;;3.88;2.83;;;20.30;99.90;;;;;;5074502;28;20460;-69
2023/08/23 00:42:46;;;;;;;3.58;2.60;;;20.30;99.90;;;;;;5074666;28;20386;-69
2023/08/23 00:45:12;;;;;;;3.85;2.95;;;20.20;99.90;;;;;;5074333;28;20028;-69
2023/08/23 00:47:38;;;;;;;4.97;2.80;;;20.20;99.90;;;;;;5075939;28;20023;-69
2023/08/23 00:50:04;;;;;;;3.58;2.78;;;20.20;99.90;;;;;;5075517;28;20024;-69
2023/08/23 00:52:30;;;;;;;7.32;2.72;;;20.20;99.90;;;;;;5064079;28;20098;-69
2023/08/23 00:54:57;;;;;;;3.63;2.35;;;20.10;99.90;;;;;;5070387;28;20474;-69
2023/08/23 00:57:24;;;;;;;4.47;2.90;;;20.00;99.90;;;;;;5074293;28;20035;-69
2023/08/23 00:59:50;;;;;;;3.78;2.60;;;19.80;99.90;;;;;;5070523;28;20680;-69
2023/08/23 01:02:16;;;;;;;4.25;2.88;;;19.60;99.90;;;;;;5075485;28;20507;-69
2023/08/23 01:04:42;;;;;;;3.83;2.53;;;19.50;99.90;;;;;;5072723;28;20027;-69
2023/08/23 01:07:12;;;;;;;4.78;2.88;;;19.40;99.90;;;;;;5075933;28;20047;-69
2023/08/23 01:10:07;;;;;;;3.20;2.58;;;19.30;99.90;;;;;;5068899;28;20036;-69
2023/08/23 01:12:55;;;;;;;3.47;2.70;;;19.20;99.90;;;;;;5071846;28;20062;-69
2023/08/23 01:15:23;;;;;;;4.85;3.50;;;19.10;99.90;;;;;;5072084;28;20032;-69
2023/08/23 01:17:50;;;;;;;4.00;2.75;;;19.00;99.90;;;;;;5076472;28;20681;-69
2023/08/23 01:20:17;;;;;;;5.88;2.90;;;18.90;99.90;;;;;;5075973;28;20028;-69
2023/08/23 01:22:54;;;;;;;5.00;3.28;;;18.90;99.90;;;;;;5072196;28;20443;-69
2023/08/23 01:25:20;;;;;;;3.50;3.13;;;18.80;99.90;;;;;;5073454;28;20101;-69
2023/08/23 01:27:46;;;;;;;4.95;3.35;;;18.80;99.90;;;;;;5076197;28;20842;-69
2023/08/23 01:30:14;;;;;;;5.32;3.28;;;18.80;99.90;;;;;;5071711;28;20032;-69
2023/08/23 01:33:03;;;;;;;3.35;3.05;;;18.80;99.90;;;;;;5072194;28;20032;-69
2023/08/23 01:35:48;;;;;;;4.50;3.20;;;18.90;99.90;;;;;;5070902;28;20123;-69
2023/08/23 01:38:18;;;;;;;3.33;2.75;;;19.00;99.90;;;;;;5075083;28;20088;-69
2023/08/23 01:40:45;;;;;;;3.72;2.90;;;19.10;99.90;;;;;;5067874;28;20020;-69
2023/08/23 01:43:11;;;;;;;4.72;3.33;;;19.10;99.90;;;;;;5073362;28;20123;-69
2023/08/23 01:45:36;;;;;;;5.93;3.22;;;19.10;99.90;;;;;;5073872;28;20469;-69
2023/08/23 01:48:02;;;;;;;3.72;2.80;;;19.10;99.90;;;;;;5068137;28;20757;-69
2023/08/23 01:50:28;;;;;;;5.15;3.15;;;19.10;99.90;;;;;;5075871;28;20032;-69
2023/08/23 01:52:54;;;;;;;3.00;2.70;;;19.10;99.90;;;;;;5069954;28;20127;-69
2023/08/23 01:55:20;;;;;;;2.97;2.35;;;19.30;99.90;;;;;;5071263;28;20109;-69
2023/08/23 01:57:46;;;;;;;4.18;2.90;;;19.30;99.90;;;;;;5077218;28;20048;-69
2023/08/23 02:00:13;;;;;;;4.15;2.95;;;19.30;99.90;;;;;;5077853;28;20024;-69
2023/08/23 02:02:42;;;;;;;3.00;2.70;;;19.30;99.90;;;;;;5073871;28;20123;-69
2023/08/23 02:05:08;;;;;;;4.47;2.88;;;19.30;99.90;;;;;;5067806;28;20128;-69
2023/08/23 02:07:33;;;;;;;3.95;2.85;;;19.30;99.90;;;;;;5069796;28;20024;-69
2023/08/23 02:09:59;;;;;;;6.53;3.95;;;19.40;99.90;;;;;;5091976;28;20036;-69
2023/08/23 02:12:25;;;;;;;4.47;3.33;;;19.40;99.90;;;;;;5078363;28;20645;-69
2023/08/23 02:14:51;;;;;;;7.53;4.15;;;19.40;99.90;;;;;;5053817;28;20408;-69
2023/08/23 02:17:16;;;;;;;4.30;3.30;;;19.30;99.90;;;;;;5076736;28;20020;-69
2023/08/23 02:19:42;;;;;;;4.35;3.47;;;19.20;99.90;;;;;;5078373;28;20369;-69
2023/08/23 02:22:08;;;;;;;5.70;3.25;;;19.20;99.90;;;;;;5079018;28;20488;-69
2023/08/23 02:24:34;;;;;;;5.88;3.28;;;19.20;99.90;;;;;;5075601;28;20028;-69
2023/08/23 02:26:59;;;;;;;5.03;3.53;;;19.20;99.90;;;;;;5090878;28;20032;-68
2023/08/23 02:29:26;;;;;;;9.57;4.32;;;19.10;99.90;;;;;;5075047;28;20489;-69
2023/08/23 02:31:52;;;;;;;7.78;4.20;;;19.10;99.90;;;;;;5076822;28;20067;-69
2023/08/23 02:34:17;;;;;;;7.70;4.00;;;19.00;99.90;;;;;;5074420;28;20032;-69
2023/08/23 02:36:43;;;;;;;7.68;3.40;;;19.00;99.90;;;;;;5077991;28;20440;-69
2023/08/23 02:39:09;;;;;;;5.15;3.40;;;19.00;99.90;;;;;;5074835;28;20077;-69
2023/08/23 02:41:35;;;;;;;5.35;2.97;;;19.00;99.90;;;;;;5074711;28;20040;-69
2023/08/23 02:44:01;;;;;;;9.13;3.75;;;19.00;99.90;;;;;;5074760;28;20492;-69
2023/08/23 02:46:26;;;;;;;7.68;3.53;;;19.00;99.90;;;;;;5076513;28;20392;-69
2023/08/23 02:48:52;;;;;;;4.50;2.78;;;19.10;99.90;;;;;;5089066;28;20464;-69
2023/08/23 02:51:18;;;;;;;4.55;3.28;;;19.10;99.90;;;;;;5079882;28;20020;-69
2023/08/23 02:53:43;;;;;;;5.78;3.10;;;19.10;99.90;;;;;;5071500;28;20707;-69
2023/08/23 02:56:09;;;;;;;5.00;3.25;;;19.10;99.90;;;;;;5073123;28;20028;-69
2023/08/23 02:58:35;;;;;;;4.78;3.25;;;19.00;99.90;;;;;;5069747;28;20039;-69
2023/08/23 03:01:02;;;;;;;4.55;2.97;;;19.00;99.90;;;;;;5085631;28;20074;-69
2023/08/23 03:03:29;;;;;;;5.75;3.25;;;19.00;99.90;;;;;;5075568;28;20032;-69
2023/08/23 03:05:57;;;;;;;5.35;3.30;;;18.90;99.90;;;;;;5070444;28;20040;-69
2023/08/23 03:08:23;;;;;;;4.10;2.78;;;18.90;99.90;;;;;;5073769;28;20044;-69
2023/08/23 03:11:01;;;;;;;3.03;2.72;;;18.90;99.90;;;;;;5078640;28;20062;-69
2023/08/23 03:13:26;;;;;;;4.25;3.00;;;18.90;99.90;;;;;;5078806;28;20063;-69
2023/08/23 03:15:54;;;;;;;4.90;3.30;;;19.00;99.90;;;;;;5068741;28;20662;-69
2023/08/23 03:18:20;;;;;;;3.15;2.35;;;19.00;99.90;;;;;;5072420;28;20488;-69
2023/08/23 03:20:47;;;;;;;3.75;2.80;;;19.00;99.90;;;;;;5075027;28;20024;-69
2023/08/23 03:23:13;;;;;;;4.95;2.70;;;19.00;99.90;;;;;;5077427;28;20027;-69
2023/08/23 03:25:40;;;;;;;5.32;2.63;;;19.00;99.90;;;;;;5086146;28;20033;-69
2023/08/23 03:28:05;;;;;;;3.33;2.38;;;19.00;99.90;;;;;;5080280;28;20038;-69
2023/08/23 03:30:31;;;;;;;4.65;2.67;;;18.90;99.90;;;;;;5069130;28;20032;-69
2023/08/23 03:32:57;;;;;;;3.92;2.45;;;18.80;99.90;;;;;;5067379;28;20561;-69
2023/08/23 03:35:23;;;;;;;3.80;2.75;;;18.80;99.90;;;;;;5074931;28;20055;-69
2023/08/23 03:37:49;;;;;;;5.38;3.05;;;18.80;99.90;;;;;;5073316;28;20401;-69
2023/08/23 03:40:15;;;;;;;3.97;3.10;;;18.80;99.90;;;;;;5071110;28;20602;-69
2023/08/23 03:42:41;;;;;;;3.92;3.40;;;18.80;99.90;;;;;;5072468;28;20507;-69
2023/08/23 03:45:07;;;;;;;3.53;3.22;;;18.80;99.90;;;;;;5076442;28;20040;-69
2023/08/23 03:47:33;;;;;;;4.22;3.00;;;18.70;99.90;;;;;;5089744;28;20033;-69
2023/08/23 03:49:59;;;;;;;3.35;3.05;;;18.70;99.90;;;;;;5073585;28;20429;-69
2023/08/23 03:52:25;;;;;;;7.82;3.08;;;18.70;99.90;;;;;;5071947;28;20442;-69
2023/08/23 03:54:51;;;;;;;4.22;2.90;;;18.70;99.90;;;;;;5073903;28;20493;-69
2023/08/23 03:57:17;;;;;;;3.55;3.15;;;18.60;99.90;;;;;;5073824;28;20020;-69
2023/08/23 03:59:43;;;;;;;4.15;3.13;;;18.50;99.90;;;;;;5073783;28;20547;-69
2023/08/23 04:02:08;;;;;;;4.13;2.97;;;18.40;99.90;;;;;;5076042;28;20022;-69
2023/08/23 04:04:34;;;;;;;4.55;3.38;;;18.40;99.90;;;;;;5070692;28;20078;-69
2023/08/23 04:07:00;;;;;;;4.32;3.15;;;18.40;99.90;;;;;;5072030;28;20056;-69
2023/08/23 04:09:26;;;;;;;3.78;3.15;;;18.30;99.90;;;;;;5071803;28;20032;-69
2023/08/23 04:11:51;;;;;;;4.00;3.40;;;18.30;99.90;;;;;;5073148;28;20822;-69
2023/08/23 04:14:17;;;;;;;4.68;3.17;;;18.30;99.90;;;;;;5074678;28;20776;-69
2023/08/23 04:16:43;;;;;;;3.58;3.28;;;18.30;99.90;;;;;;5071985;28;20024;-69
2023/08/23 04:19:09;;;;;;;5.18;2.85;;;18.30;99.90;;;;;;5069164;28;20043;-69
2023/08/23 04:21:35;;;;;;;4.40;3.33;;;18.30;99.90;;;;;;5068780;28;20024;-68
2023/08/23 04:24:01;;;;;;;3.95;3.58;;;18.30;99.90;;;;;;5073138;28;20036;-69
2023/08/23 04:26:26;;;;;;;3.83;3.28;;;18.30;99.90;;;;;;5066261;28;20028;-69
2023/08/23 04:28:53;;;;;;;6.40;3.10;;;18.40;99.90;;;;;;5071896;28;20036;-69
2023/08/23 04:31:19;;;;;;;5.35;3.28;;;18.40;99.90;;;;;;5074350;28;20036;-69
2023/08/23 04:33:49;;;;;;;3.42;3.13;;;18.40;99.90;;;;;;5074775;28;20127;-69
2023/08/23 04:36:15;;;;;;;4.65;3.42;;;18.50;99.90;;;;;;5074962;28;20093;-69
2023/08/23 04:38:41;;;;;;;5.35;3.25;;;18.50;99.90;;;;;;5071089;28;20502;-69
2023/08/23 04:41:06;;;;;;;4.90;3.60;;;18.50;99.90;;;;;;5074699;28;20055;-69
2023/08/23 04:43:33;;;;;;;4.60;3.17;;;18.50;99.90;;;;;;5087893;28;20020;-69
2023/08/23 04:46:05;;;;;;;4.13;3.38;;;18.50;99.90;;;;;;5068656;28;20021;-69
2023/08/23 04:48:31;;;;;;;6.55;3.92;;;18.50;99.90;;;;;;5075784;28;20051;-69
2023/08/23 04:50:58;;;;;;;5.93;3.50;;;18.50;99.90;;;;;;5073249;28;20496;-69
2023/08/23 04:53:24;;;;;;;5.13;3.50;;;18.50;99.90;;;;;;5073061;28;20137;-69
2023/08/23 04:55:55;;;;;;;5.50;3.35;;;18.50;99.90;;;;;;5093292;28;20065;-69
2023/08/23 04:58:22;;;;;;;4.90;3.22;;;18.50;99.90;;;;;;5090198;28;20031;-69
2023/08/23 05:00:49;;;;;;;3.60;3.05;;;18.60;99.90;;;;;;5072579;28;20069;-69
2023/08/23 05:03:15;;;;;;;4.97;3.25;;;18.60;99.90;;;;;;5065371;28;20025;-69
2023/08/23 05:05:43;;;;;;;3.50;3.08;;;18.50;99.90;;;;;;5089441;28;20028;-69
2023/08/23 05:08:08;;;;;;;3.38;3.03;;;18.50;99.90;;;;;;5068034;28;20048;-69
2023/08/23 05:10:35;;;;;;;3.90;3.35;;;18.50;99.90;;;;;;5076642;28;20035;-69
2023/08/23 05:13:01;;;;;;;5.88;3.65;;;18.50;99.90;;;;;;5072163;28;20074;-69
2023/08/23 05:15:27;;;;;;;3.65;3.17;;;18.60;99.90;;;;;;5073779;28;20790;-69
2023/08/23 05:17:53;;;;;;;4.78;2.88;;;18.60;99.90;;;;;;5072397;28;20063;-69
2023/08/23 05:20:19;;;;;;;4.20;3.45;;;18.70;99.90;;;;;;5066954;28;20055;-69
2023/08/23 05:22:45;;;;;;;5.53;3.42;;;18.70;99.90;;;;;;5069237;28;20024;-69
2023/08/23 05:25:10;;;;;;;4.55;3.22;;;18.70;99.90;;;;;;5073106;28;20024;-69
2023/08/23 05:27:36;;;;;;;3.45;3.15;;;18.70;99.90;;;;;;5072650;28;20110;-69
2023/08/23 05:30:03;;;;;;;8.85;2.88;;;18.80;99.90;;;;;;5075351;28;20071;-69
2023/08/23 05:32:30;;;;;;;6.80;3.92;;;18.80;99.90;;;;;;5095315;28;20097;-69
2023/08/23 05:34:59;;;;;;;7.25;3.42;;;18.80;99.90;;;;;;5078429;28;20040;-69
2023/08/23 05:37:25;;;;;;;9.48;3.55;;;18.80;99.90;;;;;;5074430;28;20024;-69
2023/08/23 05:39:52;;;;;;;12.20;3.55;;;18.90;99.90;;;;;;5076610;28;20039;-69
2023/08/23 05:42:18;;;;;;;15.98;4.10;;;19.00;99.90;;;;;;5078333;28;20494;-69
2023/08/23 05:44:44;;;;;;;12.07;3.47;;;19.00;99.90;;;;;;5076862;28;20579;-69
2023/08/23 05:47:10;;;;;;;16.40;4.10;;;19.10;99.90;;;;;;5077458;28;20058;-69
2023/08/23 05:49:36;;;;;;;12.20;3.75;;;19.10;99.90;;;;;;5075058;28;20508;-69
2023/08/23 05:52:01;;;;;;;14.30;4.07;;;19.10;99.90;;;;;;5082237;28;20036;-69
2023/08/23 05:54:28;;;;;;;7.35;3.92;;;19.10;99.90;;;;;;5075811;28;20024;-69
2023/08/23 05:56:54;;;;;;;5.60;3.20;;;19.10;99.90;;;;;;5076897;28;20131;-69
2023/08/23 05:59:20;;;;;;;5.93;3.38;;;19.20;99.90;;;;;;5078323;28;20563;-69
2023/08/23 06:01:45;;;;;;;13.13;3.50;;;19.30;99.90;;;;;;5079982;28;20016;-69
2023/08/23 06:04:11;;;;;;;10.45;4.32;;;19.30;99.90;;;;;;5076664;28;20035;-69
2023/08/23 06:06:37;;;;;;;14.30;4.55;;;19.40;99.90;;;;;;5075414;28;20047;-69
2023/08/23 06:09:03;;;;;;;10.43;4.18;;;19.60;99.90;;;;;;5075093;28;20794;-69
2023/08/23 06:11:28;;;;;;;6.03;3.80;;;19.70;99.90;;;;;;5074470;28;20834;-69
2023/08/23 06:13:55;;;;;;;7.10;3.13;;;19.90;99.90;;;;;;5076221;28;20450;-69
2023/08/23 06:16:21;;;;;;;6.32;3.40;;;20.00;99.90;;;;;;5072488;28;20035;-69
2023/08/23 06:18:47;;;;;;;6.22;3.72;;;20.20;99.90;;;;;;5073028;28;20097;-69
2023/08/23 06:21:12;;;;;;;5.93;4.20;;;20.30;99.90;;;;;;5076478;28;20035;-69
2023/08/23 06:23:43;;;;;;;4.35;3.38;;;20.40;99.90;;;;;;5075522;28;20033;-69
2023/08/23 06:26:09;;;;;;;4.40;3.17;;;20.40;99.90;;;;;;5079093;28;20050;-69
2023/08/23 06:28:35;;;;;;;3.17;2.92;;;20.50;99.90;;;;;;5073562;28;20074;-69
2023/08/23 06:31:01;;;;;;;5.68;3.47;;;20.60;99.90;;;;;;5075242;28;20085;-69
2023/08/23 06:33:27;;;;;;;7.20;3.85;;;20.60;99.90;;;;;;5094382;22;20422;-65
2023/08/23 06:38:19;;;;;;;9.98;4.32;;;20.80;99.90;;;;;;5055396;28;20190;-69
2023/08/23 06:40:45;;;;;;;3.92;3.53;;;21.00;99.90;;;;;;5056504;28;20120;-69
2023/08/23 06:43:18;;;;;;;5.40;3.58;;;21.20;99.90;;;;;;5060211;28;20029;-69
2023/08/23 06:45:44;;;;;;;4.50;3.72;;;21.50;99.90;;;;;;5056374;28;20025;-69
2023/08/23 06:48:09;;;;;;;5.43;3.30;;;21.60;99.90;;;;;;5061785;28;20021;-69
2023/08/23 06:50:35;;;;;;;4.50;3.20;;;21.70;99.90;;;;;;5064306;28;20608;-69
2023/08/23 06:53:01;;;;;;;5.15;3.13;;;21.70;99.90;;;;;;5063570;28;20029;-70
2023/08/23 06:55:27;;;;;;;4.57;3.30;;;21.80;99.90;;;;;;5063028;28;20025;-68
2023/08/23 06:57:53;;;;;;;5.10;3.47;;;21.80;99.90;;;;;;5064148;28;20325;-68
2023/08/23 07:00:19;;;;;;;4.75;3.72;;;21.80;99.90;;;;;;5060230;28;20024;-68
2023/08/23 07:02:45;;;;;;;6.65;4.18;;;21.80;99.90;;;;;;5060579;28;20032;-69
2023/08/23 07:05:11;;;;;;;8.30;4.25;;;21.90;99.90;;;;;;5057294;28;20032;-69
2023/08/23 07:07:36;;;;;;;6.25;3.70;;;22.00;99.90;;;;;;5064062;28;20032;-70
2023/08/23 07:10:02;;;;;;;7.65;4.38;;;22.10;99.90;;;;;;5057537;28;20036;-70
2023/08/23 07:12:28;;;;;;;9.57;5.90;;;22.20;99.90;;;;;;5059584;28;20044;-69
2023/08/23 07:14:54;;;;;;;7.30;4.05;;;22.30;99.90;;;;;;5062832;28;20033;-68
2023/08/23 07:17:20;;;;;;;4.63;3.70;;;22.40;99.90;;;;;;5059550;28;20028;-68
2023/08/23 07:19:48;;;;;;;5.00;3.65;;;22.50;99.90;;;;;;5060303;28;20066;-68
2023/08/23 07:22:13;;;;;;;3.72;3.17;;;22.60;99.90;;;;;;5062068;28;20024;-69
2023/08/23 07:24:39;;;;;;;5.55;4.07;;;22.70;99.90;;;;;;5065830;28;20700;-68
2023/08/23 07:27:05;;;;;;;4.70;3.85;;;22.80;99.90;;;;;;5064698;28;20028;-68
2023/08/23 07:29:31;;;;;;;8.15;4.15;;;22.90;99.60;;;;;;5063238;28;20039;-68
2023/08/23 07:31:59;;;;;;;7.32;4.22;;;23.00;99.60;;;;;;5057979;28;20033;-70
2023/08/23 07:34:26;;;;;;;5.43;3.50;;;23.10;99.70;;;;;;5056265;28;20040;-69
2023/08/23 07:36:52;;;;;;;5.78;3.70;;;23.30;99.30;;;;;;5062129;28;20423;-69
2023/08/23 07:39:18;;;;;;;7.50;3.70;;;23.50;98.70;;;;;;5059676;28;20490;-69
2023/08/23 07:41:43;;;;;;;6.82;3.42;;;23.60;98.20;;;;;;5062777;28;20572;-68
2023/08/23 07:44:09;;;;;;;8.88;4.93;;;23.50;98.30;;;;;;5060904;28;20067;-69
2023/08/23 07:46:35;;;;;;;6.72;3.45;;;23.50;98.10;;;;;;5061904;28;20481;-69
2023/08/23 07:49:01;;;;;;;6.53;4.95;;;23.60;98.00;;;;;;5061348;28;20024;-69
2023/08/23 07:51:27;;;;;;;8.68;4.97;;;23.70;98.00;;;;;;5063331;28;20484;-69
2023/08/23 07:53:53;;;;;;;5.10;2.92;;;23.60;98.00;;;;;;5060764;28;20515;-69
2023/08/23 07:56:19;;;;;;;6.15;3.78;;;23.60;98.20;;;;;;5058367;28;20152;-70
2023/08/23 07:58:45;;;;;;;6.38;3.22;;;23.50;98.20;;;;;;5060689;28;20760;-69
2023/08/23 08:01:11;;;;;;;6.25;3.42;;;23.40;98.50;;;;;;5064142;28;20589;-69
2023/08/23 08:03:38;;;;;;;5.72;3.53;;;23.40;99.00;;;;;;5061364;28;20399;-69
2023/08/23 08:06:04;;;;;;;5.05;3.40;;;23.40;99.00;;;;;;5061132;28;20032;-69
2023/08/23 08:08:30;;;;;;;7.20;3.80;;;23.40;98.70;;;;;;5059348;28;20055;-69
2023/08/23 08:10:56;;;;;;;8.68;4.20;;;23.40;98.60;;;;;;5058473;28;20464;-69
2023/08/23 08:13:22;;;;;;;8.10;3.60;;;23.50;98.40;;;;;;5060539;28;20207;-69
2023/08/23 08:15:48;;;;;;;6.07;3.75;;;23.50;98.10;;;;;;5058826;28;20025;-66
2023/08/23 08:18:13;;;;;;;5.28;3.33;;;23.60;98.00;;;;;;5047107;28;20064;-66
2023/08/23 08:20:39;;;;;;;5.75;3.60;;;23.60;98.20;;;;;;5060465;28;20032;-69
2023/08/23 08:23:06;;;;;;;5.78;3.35;;;23.60;97.60;;;;;;5058596;28;20028;-69
2023/08/23 08:25:31;;;;;;;8.07;3.92;;;23.70;97.90;;;;;;5058505;28;20029;-69
2023/08/23 08:27:57;;;;;;;7.20;3.67;;;23.70;98.10;;;;;;5058443;28;20032;-69
2023/08/23 08:30:23;;;;;;;5.50;3.80;;;23.70;98.10;;;;;;5056981;28;20055;-69
2023/08/23 08:32:49;;;;;;;5.50;3.05;;;23.80;97.90;;;;;;5057767;28;20037;-69
2023/08/23 08:35:14;;;;;;;7.82;4.70;;;23.80;97.70;;;;;;5064058;28;20040;-69
2023/08/23 08:37:40;;;;;;;5.65;3.50;;;23.80;97.80;;;;;;5062833;28;20029;-69
2023/08/23 08:40:06;;;;;;;3.47;2.25;;;23.90;97.60;;;;;;5061145;28;20474;-69
2023/08/23 08:42:33;;;;;;;3.50;2.13;;;24.00;96.40;;;;;;5058735;28;20407;-69
2023/08/23 08:44:59;;;;;;;3.28;2.50;;;24.00;96.20;;;;;;5074547;28;20763;-69
2023/08/23 08:47:25;;;;;;;5.05;1.88;;;24.00;96.40;;;;;;5057830;28;20442;-69
2023/08/23 08:49:51;;;;;;;1.95;1.75;;;24.10;96.10;;;;;;5056060;28;20082;-69
2023/08/23 08:52:20;;;;;;;3.22;1.92;;;24.10;95.90;;;;;;5059237;28;20133;-69
2023/08/23 08:54:50;;;;;;;2.25;1.60;;;24.10;95.60;;;;;;5058471;28;20040;-72
2023/08/23 08:57:16;;;;;;;3.42;1.50;;;24.20;95.60;;;;;;5063385;28;20800;-76
2023/08/23 08:59:43;;;;;;;4.47;1.65;;;24.30;95.50;;;;;;5059124;28;20039;-76
2023/08/23 09:02:13;;;;;;;3.72;1.98;;;24.50;95.30;;;;;;5054743;28;20043;-76
2023/08/23 09:04:39;;;;;;;2.75;1.50;;;24.70;94.30;;;;;;5054398;28;20111;-76
2023/08/23 09:07:05;;;;;;;2.65;1.48;;;25.00;94.10;;;;;;5062087;28;20075;-76
2023/08/23 09:09:32;;;;;;;2.72;1.55;;;25.20;93.70;;;;;;5067505;28;20636;-76
2023/08/23 09:11:58;;;;;;;4.13;1.52;;;25.50;93.40;;;;;;5069588;28;20059;-77
2023/08/23 09:14:28;;;;;;;5.15;1.23;;;25.70;92.40;;;;;;5067149;28;20485;-77
2023/08/23 09:16:53;;;;;;;1.38;1.27;;;25.70;91.60;;;;;;5061760;28;20040;-77
2023/08/23 09:19:19;;;;;;;5.13;1.38;;;25.80;91.30;;;;;;5066047;28;20025;-77
2023/08/23 09:21:49;;;;;;;3.92;1.25;;;25.80;92.00;;;;;;5061905;28;20756;-77
2023/08/23 09:24:16;;;;;;;4.80;1.30;;;25.80;91.80;;;;;;5063736;28;20047;-76
2023/08/23 09:26:46;;;;;;;4.65;1.48;;;25.80;91.20;;;;;;5062813;28;20029;-77
2023/08/23 09:29:12;;;;;;;3.70;1.52;;;25.70;91.30;;;;;;5067382;28;20038;-76
2023/08/23 09:31:39;;;;;;;3.42;1.60;;;25.70;91.20;;;;;;5065978;28;20039;-76
2023/08/23 09:34:15;;;;;;;4.35;1.30;;;25.70;91.60;;;;;;5062608;28;20806;-77
2023/08/23 09:36:41;;;;;;;2.42;1.02;;;25.80;91.60;;;;;;5061452;28;20105;-73
2023/08/23 09:39:11;;;;;;;2.17;1.08;;;26.00;91.10;;;;;;5062684;28;20132;-75
2023/08/23 09:41:43;;;;;;;1.98;1.20;;;26.10;90.30;;;;;;5059596;28;20039;-77
2023/08/23 09:44:09;;;;;;;2.17;1.23;;;26.20;90.10;;;;;;5059052;28;20474;-76
2023/08/23 09:46:36;;;;;;;5.38;1.10;;;26.40;90.20;;;;;;5066025;28;20495;-75
2023/08/23 09:49:06;;;;;;;2.08;1.15;;;26.60;89.70;;;;;;5064484;28;20483;-77
2023/08/23 09:51:39;;;;;;;6.53;1.40;;;26.70;87.90;;;;;;5063814;28;20066;-76
2023/08/23 09:54:12;;;;;;;4.18;1.23;;;26.70;87.90;;;;;;5059156;28;20430;-75
2023/08/23 09:56:41;;;;;;;3.00;1.20;;;26.70;87.70;;;;;;5058364;28;20032;-76
2023/08/23 09:59:08;;;;;;;3.88;2.42;;;26.70;86.80;;;;;;5066525;28;20052;-77
2023/08/23 10:01:33;;;;;;;3.35;1.70;;;26.70;86.30;;;;;;5062443;28;20049;-75
2023/08/23 10:04:01;;;;;;;4.72;1.67;;;26.60;86.90;;;;;;5064912;28;20043;-75
2023/08/23 10:06:28;;;;;;;3.47;1.40;;;26.60;86.70;;;;;;5061226;28;20560;-75
2023/08/23 10:08:56;;;;;;;3.92;1.77;;;26.50;86.60;;;;;;5060939;28;20072;-76
2023/08/23 10:11:23;;;;;;;2.28;1.30;;;26.50;87.00;;;;;;5060297;28;20031;-76
2023/08/23 10:13:50;;;;;;;4.40;1.85;;;26.50;87.60;;;;;;5058430;28;20381;-77
2023/08/23 10:16:17;;;;;;;2.95;1.75;;;26.50;87.70;;;;;;5056242;28;20088;-78
2023/08/23 10:18:43;;;;;;;3.47;1.70;;;26.70;87.30;;;;;;5055659;28;20124;-74
2023/08/23 10:21:09;;;;;;;4.82;1.95;;;26.70;87.60;;;;;;5061377;28;20025;-75
2023/08/23 10:23:36;;;;;;;3.38;2.10;;;26.80;87.20;;;;;;5062959;28;20039;-74
2023/08/23 10:26:02;;;;;;;6.13;2.13;;;26.80;87.80;;;;;;5061777;28;20115;-76
2023/08/23 10:28:28;;;;;;;3.65;1.90;;;26.80;87.40;;;;;;5061484;28;20024;-75
2023/08/23 10:30:58;;;;;;;5.07;2.20;;;26.80;88.50;;;;;;5063522;28;20025;-77
2023/08/23 10:33:24;;;;;;;4.72;2.03;;;26.80;87.10;;;;;;5055688;28;20056;-77
2023/08/23 10:35:50;;;;;;;4.47;1.77;;;26.90;86.10;;;;;;5061744;28;20056;-78
2023/08/23 10:38:16;;;;;;;2.50;2.00;;;27.00;85.50;;;;;;5061751;28;20542;-77
2023/08/23 10:40:47;;;;;;;7.78;2.40;;;27.00;85.20;;;;;;5064546;28;20165;-78
2023/08/23 10:43:15;;;;;;;3.63;2.40;;;27.10;86.00;;;;;;5065741;28;20478;-77
2023/08/23 10:45:51;;;;;;;10.27;2.05;;;27.10;86.00;;;;;;5070542;28;20028;-77
2023/08/23 10:48:21;;;;;;;3.13;2.17;;;27.10;82.70;;;;;;5055802;28;20132;-77
2023/08/23 10:50:48;;;;;;;7.65;3.08;;;27.00;82.20;;;;;;5055537;28;20033;-77
2023/08/23 10:53:16;;;;;;;3.25;1.38;;;27.00;85.00;;;;;;5061007;28;20028;-77
2023/08/23 10:55:42;;;;;;;5.13;1.60;;;27.00;83.20;;;;;;5064886;28;20093;-78
2023/08/23 10:58:08;;;;;;;3.35;1.17;;;27.10;82.70;;;;;;5064960;28;20040;-77
2023/08/23 11:00:34;;;;;;;4.07;1.63;;;27.20;82.40;;;;;;5065395;28;20043;-77
2023/08/23 11:03:01;;;;;;;4.85;2.20;;;27.20;81.10;;;;;;5062669;28;20029;-78
2023/08/23 11:05:27;;;;;;;2.58;1.70;;;27.20;80.60;;;;;;5056630;28;20040;-77
2023/08/23 11:07:52;;;;;;;7.05;2.10;;;27.20;80.20;;;;;;5062569;28;20041;-77
2023/08/23 11:10:19;;;;;;;2.05;1.52;;;27.20;79.50;;;;;;5060275;28;20046;-78
2023/08/23 11:12:45;;;;;;;3.47;1.38;;;27.20;80.60;;;;;;5060808;28;20036;-78
2023/08/23 11:15:11;;;;;;;3.60;1.48;;;27.10;80.30;;;;;;5064380;28;20090;-78
2023/08/23 11:17:37;;;;;;;2.55;2.00;;;27.20;79.50;;;;;;5063904;28;20028;-77
2023/08/23 11:20:04;;;;;;;5.28;1.52;;;27.30;79.60;;;;;;5058011;28;20043;-78
2023/08/23 11:22:30;;;;;;;2.65;1.60;;;27.10;80.00;;;;;;5055809;28;20086;-78
2023/08/23 11:24:59;;;;;;;2.17;1.65;;;27.10;81.40;;;;;;5061693;28;20032;-77
2023/08/23 11:27:24;;;;;;;3.45;1.73;;;27.10;79.30;;;;;;5063960;28;20041;-78
2023/08/23 11:29:50;;;;;;;6.22;1.80;;;27.10;80.50;;;;;;5064377;28;20033;-69
2023/08/23 11:32:16;;;;;;;3.25;1.42;;;27.10;79.30;;;;;;5064225;28;20021;-78
2023/08/23 11:34:42;;;;;;;2.58;1.50;;;27.10;79.50;;;;;;5060201;28;20730;-78
2023/08/23 11:37:12;;;;;;;3.58;1.98;;;27.10;81.00;;;;;;5061967;28;20476;-78
2023/08/23 11:39:38;;;;;;;2.08;1.40;;;27.20;79.00;;;;;;5055874;28;20596;-78
2023/08/23 11:42:05;;;;;;;4.32;1.67;;;27.20;78.90;;;;;;5061392;28;20033;-78
2023/08/23 11:44:31;;;;;;;3.55;1.92;;;27.20;80.30;;;;;;5062362;28;20039;-78
2023/08/23 11:46:58;;;;;;;2.75;2.05;;;27.20;78.90;;;;;;5059938;28;20044;-78
2023/08/23 11:49:24;;;;;;;5.55;1.67;;;27.20;78.70;;;;;;5064086;28;20571;-79
2023/08/23 11:51:50;;;;;;;3.15;1.52;;;27.20;81.40;;;;;;5062668;28;20029;-77
2023/08/23 11:54:20;;;;;;;4.00;1.55;;;27.30;78.70;;;;;;5057512;28;20072;-78
2023/08/23 11:56:45;;;;;;;4.85;1.77;;;27.30;77.30;;;;;;5063412;28;20369;-78
2023/08/23 11:59:12;;;;;;;4.10;1.92;;;27.40;77.50;;;;;;5061963;28;20031;-77
2023/08/23 12:01:39;;;;;;;1.65;1.20;;;27.40;76.80;;;;;;5060799;28;20025;-78
2023/08/23 12:04:08;;;;;;;6.30;3.67;;;27.40;75.70;;;;;;5064272;28;20033;-77
2023/08/23 12:06:34;;;;;;;3.28;1.52;;;27.40;78.00;;;;;;5060604;28;20079;-77
2023/08/23 12:08:59;;;;;;;3.78;1.65;;;27.30;80.00;;;;;;5063054;28;20688;-78
2023/08/23 12:11:25;;;;;;;5.28;1.55;;;27.30;78.40;;;;;;5063022;28;20121;-77
2023/08/23 12:13:51;;;;;;;4.53;1.73;;;27.30;78.70;;;;;;5057767;28;20084;-78
2023/08/23 12:16:18;;;;;;;3.05;1.48;;;27.40;79.60;;;;;;5055372;28;20049;-77
2023/08/23 12:18:46;;;;;;;2.28;1.30;;;27.40;79.90;;;;;;5058306;28;20033;-77
2023/08/23 12:21:12;;;;;;;2.42;1.20;;;27.40;79.40;;;;;;5058734;28;20041;-77
2023/08/23 12:23:38;;;;;;;2.25;1.20;;;27.40;79.30;;;;;;5054624;28;20025;-77
2023/08/23 12:26:03;;;;;;;2.13;1.33;;;27.50;79.40;;;;;;5060092;28;20086;-77
2023/08/23 12:28:29;;;;;;;1.45;1.10;;;27.40;75.90;;;;;;5061442;28;20032;-77
2023/08/23 12:30:55;;;;;;;4.07;1.50;;;27.40;78.40;;;;;;5055603;28;20046;-78
2023/08/23 12:33:21;;;;;;;3.13;1.15;;;27.50;80.50;;;;;;5059586;28;20032;-77
2023/08/23 12:35:48;;;;;;;6.00;1.50;;;27.50;78.70;;;;;;5056169;28;20441;-76
2023/08/23 12:38:14;;;;;;;3.50;1.23;;;27.50;78.00;;;;;;5060155;28;20048;-78
2023/08/23 12:40:39;;;;;;;4.57;1.73;;;27.50;76.60;;;;;;5061528;28;20079;-78
2023/08/23 12:43:06;;;;;;;2.95;1.30;;;27.50;75.70;;;;;;5057586;28;20464;-78
2023/08/23 12:45:32;;;;;;;3.55;1.00;;;27.50;76.60;;;;;;5059465;28;20058;-78